Aleksandrov-Gaj, Russia
Current Conditions -  °F | °C
As of 8:00 AM on Sunday 26 Oct 2014 (Local Time) from UWSS Reporting Station
Broken Clouds Broken Clouds  
Wind Chill:   Ceiling: 2400
Heat Index: 18°   Visibility: 6mi
Dew Point: 10°   Wind: 7mph
Humidity: 73%   Direction: 310°NW
Pressure: 30.62"   Gusts: NA
Location:  50.15°N, 48.57°E
Report Text: UWSS 260500Z 31003MPS 9999 BKN024 M08/M12 Q1037 300///60 NOSIGRMK QFE764
Loading
Personal Weather Stations






























Interactive Weather Map
Tropical Storm Tracking
New forecast layout! Learn more

10-Day Weather Forecast

Advertisements
Track Severe Weather on mobile